Terminal Aerodrome Forecast
Issued by NWS Wilmington, OH

Current Version | Previous Version | Graphics & Text | Print | Product List | Glossary On
Versions: 1 2 3 4 5 6 7 8 9 10 11 12 13 14 15 16
000
FTUS41 KILN 201130
TAFDAY
TAF
KDAY 201130Z 2012/2112 27010KT P6SM SKC
     FM201700 26012KT P6SM SCT050
     FM210000 23006KT P6SM SCT200
     FM210500 21005KT P6SM BKN080=

USA.gov is the U.S. government's official web portal to all federal, state and local government web resources and services.